createdAt,value
2023-05-30T00:01:14.512Z,99402.81
2023-05-30T00:04:01.570Z,99405.59
2023-05-30T00:06:48.232Z,99405.59
2023-05-30T00:09:33.776Z,99412.34
2023-05-30T00:12:18.949Z,99412.34
2023-05-30T00:15:04.812Z,99419.06
2023-05-30T00:17:53.664Z,99424.63
2023-05-30T00:20:39.619Z,99430.59
2023-05-30T00:23:25.009Z,99426.22
2023-05-30T00:26:10.393Z,99429.78
2023-05-30T00:28:55.733Z,99428.22
2023-05-30T00:31:41.028Z,99425.84
2023-05-30T00:34:26.363Z,99423.50
2023-05-30T00:37:11.573Z,99426.28
2023-05-30T00:39:56.837Z,99416.75
2023-05-30T00:42:42.057Z,99413.19
2023-05-30T00:45:27.532Z,99415.59
2023-05-30T00:48:13.842Z,99419.13
2023-05-30T00:50:59.487Z,99421.91
2023-05-30T00:53:45.164Z,99427.47
2023-05-30T00:56:31.270Z,99421.91
2023-05-30T00:59:17.516Z,99425.91
2023-05-30T01:02:03.718Z,99429.84
2023-05-30T01:04:49.461Z,99437.38
2023-05-30T01:07:35.078Z,99437.38
2023-05-30T01:10:21.374Z,99427.50
2023-05-30T01:13:15.878Z,99439.38
2023-05-30T01:16:08.723Z,99429.47
2023-05-30T01:19:06.893Z,99432.22
2023-05-30T01:22:00.823Z,99440.97
2023-05-30T01:25:05.714Z,99442.53
2023-05-30T01:28:07.869Z,99442.16
2023-05-30T01:30:54.359Z,99440.16
2023-05-30T01:33:43.005Z,99439.78
2023-05-30T01:36:30.075Z,99441.78
2023-05-30T01:39:15.439Z,99440.22
2023-05-30T01:42:10.004Z,99450.50
2023-05-30T01:45:17.299Z,99445.75
2023-05-30T01:48:10.015Z,99439.44
2023-05-30T01:50:56.750Z,99437.44
2023-05-30T01:53:51.326Z,99438.63
2023-05-30T01:56:38.752Z,99443.38
2023-05-30T01:59:27.155Z,99441.00
2023-05-30T02:02:13.186Z,99439.03
2023-05-30T02:04:58.649Z,99452.91
2023-05-30T02:07:43.888Z,99452.09
2023-05-30T02:10:29.094Z,99456.84
2023-05-30T02:13:14.402Z,99454.47
2023-05-30T02:15:59.779Z,99456.84
2023-05-30T02:18:46.501Z,99467.94
2023-05-30T02:21:32.095Z,99456.47
2023-05-30T02:24:17.822Z,99455.69
2023-05-30T02:27:03.185Z,99462.44
2023-05-30T02:29:48.394Z,99457.66
2023-05-30T02:32:33.847Z,99453.31
2023-05-30T02:35:19.731Z,99446.59
2023-05-30T02:38:06.725Z,99448.97
2023-05-30T02:40:52.223Z,99455.31
2023-05-30T02:43:37.389Z,99455.31
2023-05-30T02:46:22.637Z,99453.72
2023-05-30T02:49:07.928Z,99452.94
2023-05-30T02:51:53.173Z,99456.91
2023-05-30T02:54:42.173Z,99460.88
2023-05-30T02:57:46.529Z,99463.25
2023-05-30T03:00:53.456Z,99459.28
2023-05-30T03:03:43.187Z,99463.28
2023-05-30T03:06:41.620Z,99464.88
2023-05-30T03:09:46.890Z,99477.53
2023-05-30T03:12:34.047Z,99469.63
2023-05-30T03:15:21.963Z,99465.66
2023-05-30T03:18:07.465Z,99470.44
2023-05-30T03:20:53.937Z,99472.81
2023-05-30T03:23:41.847Z,99472.41
2023-05-30T03:26:28.521Z,99468.88
2023-05-30T03:29:14.364Z,99474.81
2023-05-30T03:31:59.638Z,99481.53
2023-05-30T03:34:46.355Z,99476.78
2023-05-30T03:37:34.360Z,99474.84
2023-05-30T03:40:19.962Z,99487.09
2023-05-30T03:44:07.069Z,99480.38
2023-05-30T03:46:52.401Z,99480.78
2023-05-30T03:49:37.765Z,99484.72
2023-05-30T03:52:23.230Z,99479.19
2023-05-30T03:55:09.119Z,99485.91
2023-05-30T03:57:54.645Z,99496.19
2023-05-30T04:00:40.115Z,99495.78
2023-05-30T04:03:25.925Z,99501.31
2023-05-30T04:06:11.772Z,99496.16
2023-05-30T04:08:58.421Z,99501.69
2023-05-30T04:11:44.195Z,99495.31
2023-05-30T04:14:29.314Z,99495.69
2023-05-30T04:17:15.851Z,99498.06
2023-05-30T04:20:10.480Z,99505.56
2023-05-30T04:22:58.407Z,99503.19
2023-05-30T04:25:45.730Z,99508.72
2023-05-30T04:28:32.071Z,99508.34
2023-05-30T04:31:21.823Z,99506.75
2023-05-30T04:34:09.867Z,99511.50
2023-05-30T04:36:57.819Z,99511.50
2023-05-30T04:39:45.464Z,99518.63
2023-05-30T04:42:34.848Z,99522.56
2023-05-30T04:45:27.919Z,99525.72
2023-05-30T04:48:13.407Z,99518.59
2023-05-30T04:51:00.585Z,99523.31
2023-05-30T04:53:46.282Z,99525.28
2023-05-30T04:56:32.008Z,99529.22
2023-05-30T04:59:17.702Z,99524.06
2023-05-30T05:36:39.680Z,99533.66
2023-05-30T05:39:24.887Z,99536.84
2023-05-30T05:42:10.147Z,99529.72
2023-05-30T05:44:55.433Z,99533.69
2023-05-30T05:47:41.008Z,99535.69
2023-05-30T05:50:26.264Z,99540.41
2023-05-30T05:53:11.455Z,99536.09
2023-05-30T05:55:56.723Z,99539.63
2023-05-30T05:58:42.048Z,99542.41
2023-05-30T06:01:27.122Z,99539.25
2023-05-30T06:04:13.561Z,99541.22
2023-05-30T06:06:59.353Z,99544.00
2023-05-30T06:09:44.752Z,99546.38
2023-05-30T06:12:29.940Z,99544.81
2023-05-30T06:15:15.155Z,99544.84
2023-05-30T06:18:00.618Z,99548.00
2023-05-30T06:20:45.945Z,99549.16
2023-05-30T06:23:31.795Z,99544.84
2023-05-30T06:26:17.148Z,99550.38
2023-05-30T06:29:02.389Z,99549.59
2023-05-30T06:31:48.031Z,99547.22
2023-05-30T06:34:33.336Z,99546.81
2023-05-30T06:37:18.677Z,99555.53
2023-05-30T06:40:04.154Z,99549.97
2023-05-30T06:42:49.832Z,99555.13
2023-05-30T06:45:35.166Z,99559.09
2023-05-30T06:48:20.634Z,99564.66
2023-05-30T06:51:07.374Z,99561.06
2023-05-30T06:53:53.183Z,99557.50
2023-05-30T06:56:39.143Z,99561.06
2023-05-30T06:59:24.539Z,99568.59
2023-05-30T07:02:11.293Z,99563.06
2023-05-30T07:04:56.838Z,99567.41
2023-05-30T07:07:45.502Z,99568.59
2023-05-30T07:10:30.987Z,99574.91
2023-05-30T07:13:16.632Z,99570.19
2023-05-30T07:16:02.232Z,99570.97
2023-05-30T07:18:50.269Z,99583.22
2023-05-30T07:21:40.554Z,99573.34
2023-05-30T07:24:26.280Z,99574.13
2023-05-30T07:27:11.826Z,99575.72
2023-05-30T07:29:57.473Z,99581.66
2023-05-30T07:32:42.991Z,99583.66
2023-05-30T07:35:28.064Z,99583.66
2023-05-30T07:38:13.484Z,99589.59
2023-05-30T07:40:58.976Z,99584.03
2023-05-30T07:43:44.644Z,99585.22
2023-05-30T07:46:30.034Z,99586.41
2023-05-30T07:49:15.733Z,99578.88
2023-05-30T07:52:01.080Z,99584.03
2023-05-30T07:54:46.435Z,99582.06
2023-05-30T07:57:32.346Z,99586.38
2023-05-30T08:00:18.014Z,99582.06
2023-05-30T08:03:03.523Z,99584.03
2023-05-30T08:05:52.177Z,99588.78
2023-05-30T08:08:37.736Z,99585.22
2023-05-30T08:11:22.883Z,99591.19
2023-05-30T08:14:08.387Z,99591.97
2023-05-30T08:16:53.652Z,99580.88
2023-05-30T08:19:39.027Z,99585.22
2023-05-30T08:22:25.269Z,99583.22
2023-05-30T08:25:11.771Z,99583.22
2023-05-30T08:28:00.249Z,99583.66
2023-05-30T08:30:50.234Z,99590.38
2023-05-30T08:33:36.922Z,99593.94
2023-05-30T08:36:22.974Z,99589.19
2023-05-30T08:39:15.169Z,99597.88
2023-05-30T08:42:02.300Z,99596.28
2023-05-30T08:44:47.877Z,99583.66
2023-05-30T08:47:34.522Z,99580.88
2023-05-30T08:50:21.763Z,99580.09
2023-05-30T08:53:18.242Z,99583.66
2023-05-30T08:56:08.482Z,99580.47
2023-05-30T08:58:54.859Z,99594.72
2023-05-30T09:01:41.050Z,99574.13
2023-05-30T09:04:26.787Z,99586.41
2023-05-30T09:07:15.478Z,99583.66
2023-05-30T09:10:01.973Z,99583.66
2023-05-30T09:12:47.792Z,99584.03
2023-05-30T09:15:33.139Z,99574.13
2023-05-30T09:18:18.548Z,99579.66
2023-05-30T09:21:04.798Z,99580.09
2023-05-30T09:23:51.371Z,99584.44
2023-05-30T09:26:36.599Z,99585.22
2023-05-30T09:29:21.892Z,99592.34
2023-05-30T09:32:07.720Z,99591.16
2023-05-30T09:34:58.379Z,99590.75
2023-05-30T09:37:47.986Z,99589.19
2023-05-30T09:40:35.012Z,99592.34
2023-05-30T09:43:35.253Z,99585.22
2023-05-30T09:46:28.462Z,99588.78
2023-05-30T09:49:14.496Z,99589.56
2023-05-30T09:52:00.297Z,99589.56
2023-05-30T09:54:45.858Z,99598.28
2023-05-30T09:57:31.308Z,99587.59
2023-05-30T10:00:23.506Z,99584.03
2023-05-30T10:03:08.944Z,99593.91
2023-05-30T10:05:57.544Z,99586.38
2023-05-30T10:08:46.492Z,99585.59
2023-05-30T10:11:32.705Z,99582.06
2023-05-30T10:14:18.615Z,99582.84
2023-05-30T10:17:09.105Z,99593.13
2023-05-30T10:20:03.448Z,99573.34
2023-05-30T10:22:54.075Z,99578.88
2023-05-30T10:25:47.763Z,99587.97
2023-05-30T10:28:35.718Z,99578.88
2023-05-30T10:31:22.785Z,99578.88
2023-05-30T10:34:12.893Z,99584.44
2023-05-30T10:37:00.633Z,99582.84
2023-05-30T10:40:10.086Z,99575.69
2023-05-30T10:43:06.460Z,99571.75
2023-05-30T10:46:09.492Z,99575.31
2023-05-30T10:49:01.168Z,99564.22
2023-05-30T10:52:07.297Z,99559.84
2023-05-30T10:54:52.963Z,99565.41
2023-05-30T10:57:38.220Z,99559.06
2023-05-30T11:00:28.537Z,99562.22
2023-05-30T11:03:37.409Z,99565.00
2023-05-30T11:06:23.361Z,99567.00
2023-05-30T11:09:13.147Z,99563.41
2023-05-30T11:12:00.495Z,99562.22
2023-05-30T11:14:58.640Z,99558.25
2023-05-30T11:17:44.785Z,99556.66
2023-05-30T11:20:32.383Z,99560.63
2023-05-30T11:23:18.992Z,99557.03
2023-05-30T11:26:04.714Z,99553.44
2023-05-30T11:28:51.664Z,99551.84
2023-05-30T11:31:38.369Z,99558.16
2023-05-30T11:34:24.170Z,99555.78
2023-05-30T11:37:12.434Z,99550.22
2023-05-30T11:39:58.057Z,99552.56
2023-05-30T11:42:43.688Z,99549.00
2023-05-30T11:45:33.273Z,99544.63
2023-05-30T11:48:19.896Z,99542.25
2023-05-30T11:51:07.351Z,99542.63
2023-05-30T11:53:52.594Z,99544.19
2023-05-30T11:56:38.059Z,99537.50
2023-05-30T11:59:28.210Z,99537.09
2023-05-30T12:02:13.891Z,99539.47
2023-05-30T12:05:03.977Z,99532.31
2023-05-30T12:07:54.156Z,99541.41
2023-05-30T12:10:42.244Z,99534.69
2023-05-30T12:13:33.745Z,99537.44
2023-05-30T12:16:26.128Z,99538.28
2023-05-30T12:19:13.003Z,99539.84
2023-05-30T12:22:10.729Z,99531.91
2023-05-30T12:24:56.314Z,99532.72
2023-05-30T12:27:44.597Z,99523.59
2023-05-30T12:30:37.422Z,99530.34
2023-05-30T12:33:24.706Z,99534.31
2023-05-30T12:36:22.243Z,99533.13
2023-05-30T12:39:30.356Z,99539.44
2023-05-30T12:42:31.728Z,99535.88
2023-05-30T12:45:17.528Z,99535.88
2023-05-30T12:48:02.975Z,99535.09
2023-05-30T12:50:49.176Z,99533.13
2023-05-30T12:53:34.551Z,99532.75
2023-05-30T12:56:20.461Z,99531.97
2023-05-30T12:59:06.623Z,99532.34
2023-05-30T13:01:52.364Z,99523.22
2023-05-30T13:04:39.360Z,99520.06
2023-05-30T13:07:24.611Z,99536.69
2023-05-30T13:10:10.575Z,99523.59
2023-05-30T13:12:56.193Z,99518.06
2023-05-30T13:15:42.024Z,99521.59
2023-05-30T13:18:27.831Z,99515.28
2023-05-30T13:21:13.036Z,99522.38
2023-05-30T13:23:58.664Z,99519.19
2023-05-30T13:26:44.168Z,99516.44
2023-05-30T13:29:29.570Z,99516.44
2023-05-30T13:32:14.775Z,99513.63
2023-05-30T13:34:59.974Z,99517.16
2023-05-30T13:37:45.130Z,99504.13
2023-05-30T13:40:30.914Z,99508.44
2023-05-30T13:43:16.106Z,99500.50
2023-05-30T13:46:01.504Z,99506.44
2023-05-30T13:48:47.011Z,99513.53
2023-05-30T13:51:33.487Z,99510.75
2023-05-30T13:54:18.740Z,99499.59
2023-05-30T13:57:04.409Z,99503.97
2023-05-30T13:59:49.884Z,99506.28
2023-05-30T14:02:35.273Z,99497.53
2023-05-30T14:05:21.528Z,99493.94
2023-05-30T14:08:06.744Z,99495.88
2023-05-30T14:10:52.225Z,99498.22
2023-05-30T14:13:38.289Z,99491.84
2023-05-30T14:16:24.010Z,99488.66
2023-05-30T14:19:12.400Z,99495.34
2023-05-30T14:21:57.584Z,99487.41
2023-05-30T14:24:43.123Z,99491.78
2023-05-30T14:27:28.475Z,99490.94
2023-05-30T14:30:17.743Z,99485.78
2023-05-30T14:33:04.021Z,99481.38
2023-05-30T14:35:49.678Z,99482.53
2023-05-30T14:38:36.153Z,99492.84
2023-05-30T14:41:22.675Z,99493.63
2023-05-30T14:44:08.313Z,99487.75
2023-05-30T14:46:53.943Z,99500.47
2023-05-30T14:49:39.511Z,99487.78
2023-05-30T14:52:25.596Z,99493.31
2023-05-30T14:55:11.757Z,99488.91
2023-05-30T14:57:56.890Z,99493.59
2023-05-30T15:00:42.260Z,99488.81
2023-05-30T15:03:27.647Z,99487.59
2023-05-30T15:06:13.401Z,99480.03
2023-05-30T15:09:01.769Z,99476.47
2023-05-30T15:11:47.822Z,99477.63
2023-05-30T15:14:33.298Z,99468.06
2023-05-30T15:17:19.533Z,99466.06
2023-05-30T15:20:05.787Z,99469.22
2023-05-30T15:22:51.136Z,99462.13
2023-05-30T15:25:36.662Z,99469.25
2023-05-30T15:28:22.175Z,99465.31
2023-05-30T15:31:07.411Z,99468.88
2023-05-30T15:33:52.874Z,99459.75
2023-05-30T15:36:38.595Z,99469.69
2023-05-30T15:39:23.875Z,99472.44
2023-05-30T15:42:09.202Z,99472.06
2023-05-30T15:44:54.627Z,99472.06
2023-05-30T15:47:39.889Z,99472.47
2023-05-30T15:50:25.374Z,99472.47
2023-05-30T15:53:10.687Z,99461.78
2023-05-30T15:55:56.068Z,99458.97
2023-05-30T15:58:41.456Z,99470.88
2023-05-30T16:01:26.824Z,99464.13
2023-05-30T16:04:12.546Z,99458.56
2023-05-30T16:06:58.454Z,99464.16
2023-05-30T16:09:43.950Z,99474.88
2023-05-30T16:12:29.424Z,99466.16
2023-05-30T16:15:14.898Z,99466.56
2023-05-30T16:18:00.387Z,99467.34
2023-05-30T16:20:45.728Z,99466.97
2023-05-30T16:23:30.821Z,99469.34
2023-05-30T16:26:16.595Z,99469.34
2023-05-30T16:29:01.903Z,99466.19
2023-05-30T16:31:47.308Z,99462.22
2023-05-30T16:34:32.710Z,99472.13
2023-05-30T16:37:18.327Z,99474.56
2023-05-30T16:40:05.593Z,99479.28
2023-05-30T16:42:52.324Z,99477.31
2023-05-30T16:45:37.643Z,99480.50
2023-05-30T16:48:22.922Z,99481.28
2023-05-30T16:51:08.328Z,99474.09
2023-05-30T16:53:56.635Z,99483.59
2023-05-30T16:56:41.946Z,99480.41
2023-05-30T16:59:27.336Z,99490.69
2023-05-30T17:02:15.283Z,99486.78
2023-05-30T17:05:02.043Z,99480.03
2023-05-30T17:07:47.954Z,99487.56
2023-05-30T17:10:33.552Z,99487.59
2023-05-30T17:13:19.932Z,99482.81
2023-05-30T17:16:08.711Z,99486.78
2023-05-30T17:18:54.200Z,99488.75
2023-05-30T17:21:39.930Z,99484.38
2023-05-30T17:24:27.308Z,99494.31
2023-05-30T17:27:13.227Z,99493.94
2023-05-30T17:29:58.812Z,99492.38
2023-05-30T17:32:44.248Z,99490.00
2023-05-30T17:35:29.772Z,99494.78
2023-05-30T17:38:15.173Z,99490.00
2023-05-30T17:41:00.990Z,99495.56
2023-05-30T17:43:46.734Z,99498.34
2023-05-30T17:46:32.447Z,99493.59
2023-05-30T17:49:18.226Z,99493.59
2023-05-30T17:52:03.742Z,99494.78
2023-05-30T17:54:49.226Z,99505.09
2023-05-30T17:57:36.715Z,99503.09
2023-05-30T18:00:23.613Z,99506.28
2023-05-30T18:03:12.359Z,99509.06
2023-05-30T18:05:57.915Z,99516.59
2023-05-30T18:08:43.384Z,99505.13
2023-05-30T18:11:28.718Z,99521.78
2023-05-30T18:14:16.846Z,99515.81
2023-05-30T18:17:02.632Z,99519.00
2023-05-30T18:19:49.247Z,99519.81
2023-05-30T18:22:36.719Z,99519.44
2023-05-30T18:25:22.316Z,99522.59
2023-05-30T18:28:08.667Z,99521.03
2023-05-30T18:30:54.011Z,99516.69
2023-05-30T18:33:39.328Z,99525.00
2023-05-30T18:36:24.563Z,99521.47
2023-05-30T18:39:09.898Z,99524.25
2023-05-30T18:41:55.285Z,99535.34
2023-05-30T18:44:41.106Z,99538.56
2023-05-30T18:47:26.416Z,99536.97
2023-05-30T18:50:12.848Z,99542.50
2023-05-30T18:52:58.441Z,99540.13
2023-05-30T18:55:43.819Z,99551.66
2023-05-30T18:58:29.212Z,99548.09
2023-05-30T19:01:14.604Z,99549.69
2023-05-30T19:04:00.442Z,99544.56
2023-05-30T19:06:45.730Z,99547.38
2023-05-30T19:09:31.830Z,99553.31
2023-05-30T19:12:17.491Z,99556.91
2023-05-30T19:15:03.126Z,99560.91
2023-05-30T19:17:49.913Z,99557.75
2023-05-30T19:20:36.057Z,99566.47
2023-05-30T19:23:22.020Z,99569.66
2023-05-30T19:26:07.598Z,99572.84
2023-05-30T19:28:54.490Z,99572.03
2023-05-30T19:31:39.838Z,99573.25
2023-05-30T19:34:25.167Z,99572.03
2023-05-30T19:37:10.720Z,99574.44
2023-05-30T19:39:56.341Z,99581.19
2023-05-30T19:42:41.846Z,99583.97
2023-05-30T19:45:27.742Z,99586.75
2023-05-30T19:48:13.531Z,99582.78
2023-05-30T19:50:58.915Z,99585.19
2023-05-30T19:53:44.630Z,99586.38
2023-05-30T19:56:29.876Z,99592.34
2023-05-30T19:59:15.303Z,99597.50
2023-05-30T20:02:00.851Z,99593.13
2023-05-30T20:04:46.433Z,99594.34
2023-05-30T20:07:31.691Z,99603.50
2023-05-30T20:10:17.087Z,99609.03
2023-05-30T20:13:02.982Z,99601.50
2023-05-30T20:15:48.361Z,99605.50
2023-05-30T20:18:34.201Z,99611.44
2023-05-30T20:21:19.803Z,99610.25
2023-05-30T20:24:05.716Z,99609.88
2023-05-30T20:26:51.257Z,99612.25
2023-05-30T20:29:36.673Z,99617.03
2023-05-30T20:32:22.094Z,99609.09
2023-05-30T20:35:07.628Z,99607.16
2023-05-30T20:37:53.175Z,99609.53
2023-05-30T20:40:38.779Z,99607.16
2023-05-30T20:43:24.435Z,99615.44
2023-05-30T20:46:09.822Z,99609.50
2023-05-30T20:48:55.553Z,99620.59
2023-05-30T20:51:41.068Z,99629.28
2023-05-30T20:54:26.440Z,99634.84
2023-05-30T20:57:22.784Z,99635.63
2023-05-30T21:00:09.770Z,99634.84
2023-05-30T21:02:55.300Z,99639.59
2023-05-30T21:05:40.928Z,99641.97
2023-05-30T21:08:26.308Z,99634.88
2023-05-30T21:11:12.398Z,99634.88
2023-05-30T21:13:59.193Z,99647.56
2023-05-30T21:16:45.995Z,99638.47
2023-05-30T21:19:31.664Z,99631.34
2023-05-30T21:22:17.007Z,99632.94
2023-05-30T21:25:02.440Z,99632.16
2023-05-30T21:27:47.751Z,99640.88
2023-05-30T21:30:33.001Z,99637.31
2023-05-30T21:33:18.303Z,99644.06
2023-05-30T21:36:03.585Z,99656.38
2023-05-30T21:38:49.650Z,99652.41
2023-05-30T21:41:35.427Z,99650.44
2023-05-30T21:52:17.719Z,99654.84
2023-05-30T21:55:03.856Z,99655.22
2023-05-30T21:57:49.264Z,99661.16
2023-05-30T22:00:35.193Z,99665.91
2023-05-30T22:03:21.603Z,99664.31
2023-05-30T22:06:07.295Z,99670.28
2023-05-30T22:08:52.813Z,99671.47
2023-05-30T22:11:38.216Z,99670.66
2023-05-30T22:14:23.496Z,99666.72
2023-05-30T22:17:10.251Z,99673.44
2023-05-30T22:19:55.599Z,99674.66
2023-05-30T22:22:41.034Z,99675.84
2023-05-30T22:25:27.502Z,99674.63
2023-05-30T22:28:12.805Z,99676.63
2023-05-30T22:30:58.048Z,99671.50
2023-05-30T22:33:43.225Z,99677.44
2023-05-30T22:36:28.439Z,99676.66
2023-05-30T22:39:14.218Z,99682.59
2023-05-30T22:41:59.586Z,99684.19
2023-05-30T22:44:44.843Z,99673.47
2023-05-30T22:47:30.184Z,99671.50
2023-05-30T22:50:15.519Z,99673.09
2023-05-30T22:53:00.816Z,99670.72
2023-05-30T22:55:46.153Z,99666.75
2023-05-30T22:58:31.599Z,99665.97
2023-05-30T23:01:17.823Z,99665.19
2023-05-30T23:04:03.553Z,99663.59
2023-05-30T23:06:49.207Z,99669.56
2023-05-30T23:09:34.437Z,99665.59
2023-05-30T23:12:19.737Z,99661.25
2023-05-30T23:15:05.670Z,99665.59
2023-05-30T23:17:50.872Z,99661.28
2023-05-30T23:20:38.690Z,99662.06
2023-05-30T23:23:24.369Z,99666.00
2023-05-30T23:26:09.620Z,99662.81
2023-05-30T23:28:55.274Z,99669.56
2023-05-30T23:31:40.451Z,99663.63
2023-05-30T23:34:25.655Z,99670.38
2023-05-30T23:37:13.332Z,99671.53
2023-05-30T23:39:58.723Z,99669.97
2023-05-30T23:42:43.994Z,99670.75
2023-05-30T23:45:29.127Z,99666.03
2023-05-30T23:48:14.644Z,99671.94
2023-05-30T23:51:02.754Z,99679.47
2023-05-30T23:53:48.505Z,99677.09
2023-05-30T23:56:33.913Z,99672.72
2023-05-30T23:59:19.190Z,99673.94
